Time;durP1;ratioP1;P1;durP2;ratioP2;P2;SDS_P1;SDS_P2;PMS_P1;PMS_P2;Temp;Humidity;BMP_temperature;BMP_pressure;BME280_temperature;BME280_humidity;BME280_pressure;Samples;Min_cycle;Max_cycle;Signal;HPM_P1;HPM_P2
2024/02/22 00:01:01;;;;;;;3.35;2.00;;;8.80;99.90;;;;;;5088019;28;20512;-65
2024/02/22 00:03:26;;;;;;;3.25;1.83;;;8.70;99.90;;;;;;5088345;28;20023;-65
2024/02/22 00:05:52;;;;;;;4.05;1.80;;;8.70;99.90;;;;;;5088164;28;20024;-64
2024/02/22 00:08:17;;;;;;;6.63;2.40;;;8.70;99.90;;;;;;5088199;28;20027;-64
2024/02/22 00:10:43;;;;;;;4.57;1.90;;;8.70;99.90;;;;;;5088070;28;20020;-64
2024/02/22 00:13:10;;;;;;;5.78;2.10;;;8.60;99.90;;;;;;5088341;28;20038;-65
2024/02/22 00:15:36;;;;;;;2.30;1.45;;;8.70;99.90;;;;;;5087611;28;20020;-64
2024/02/22 00:18:03;;;;;;;3.97;1.63;;;8.60;99.90;;;;;;5088627;28;20119;-64
2024/02/22 00:20:29;;;;;;;3.63;1.80;;;8.60;99.90;;;;;;5088260;28;20084;-64
2024/02/22 00:22:54;;;;;;;3.40;1.80;;;8.60;99.90;;;;;;5086517;28;20560;-64
2024/02/22 00:25:21;;;;;;;5.75;1.75;;;8.60;99.90;;;;;;5086232;28;20423;-64
2024/02/22 00:27:47;;;;;;;3.47;1.88;;;8.60;99.90;;;;;;5087689;28;20016;-64
2024/02/22 00:30:13;;;;;;;3.78;2.20;;;8.60;99.90;;;;;;5088150;28;20020;-64
2024/02/22 00:32:40;;;;;;;3.92;1.85;;;8.50;99.90;;;;;;5087500;28;20016;-64
2024/02/22 00:35:05;;;;;;;3.97;1.88;;;8.50;99.90;;;;;;5088143;28;20020;-64
2024/02/22 00:37:37;;;;;;;6.70;2.28;;;8.50;99.90;;;;;;5087836;28;20020;-64
2024/02/22 00:40:04;;;;;;;3.38;2.22;;;8.50;99.90;;;;;;5087675;28;20057;-64
2024/02/22 00:42:30;;;;;;;5.68;1.90;;;8.40;99.90;;;;;;5087827;28;20035;-62
2024/02/22 00:44:56;;;;;;;10.43;2.17;;;8.30;99.90;;;;;;5087429;28;20024;-62
2024/02/22 00:47:22;;;;;;;3.97;2.47;;;8.40;99.90;;;;;;5087495;28;20026;-61
2024/02/22 00:49:48;;;;;;;4.63;2.00;;;8.30;99.90;;;;;;5087795;28;20016;-61
2024/02/22 00:52:13;;;;;;;4.82;1.95;;;8.30;99.90;;;;;;5087799;28;20020;-60
2024/02/22 00:54:40;;;;;;;3.88;2.00;;;8.30;99.90;;;;;;5081473;28;20484;-60
2024/02/22 00:57:05;;;;;;;4.75;2.13;;;8.30;99.90;;;;;;5082649;28;20107;-59
2024/02/22 00:59:33;;;;;;;6.18;1.83;;;8.30;99.90;;;;;;5080665;28;20131;-59
2024/02/22 01:01:59;;;;;;;3.75;1.75;;;8.30;99.90;;;;;;5079299;28;20020;-59
2024/02/22 01:04:24;;;;;;;4.90;2.20;;;8.20;99.90;;;;;;5076937;28;20034;-59
2024/02/22 01:06:52;;;;;;;5.80;2.00;;;8.20;99.90;;;;;;5077402;28;20032;-59
2024/02/22 01:09:18;;;;;;;8.35;2.90;;;8.20;99.90;;;;;;5081984;28;20070;-61
2024/02/22 01:11:43;;;;;;;8.48;2.25;;;8.20;99.90;;;;;;5071977;28;20032;-61
2024/02/22 01:14:09;;;;;;;8.30;2.45;;;8.20;99.90;;;;;;5080181;28;20103;-61
2024/02/22 01:16:34;;;;;;;5.10;2.50;;;8.10;99.90;;;;;;5077896;28;20023;-61
2024/02/22 01:19:00;;;;;;;4.80;2.58;;;8.10;99.90;;;;;;5075288;28;20048;-61
2024/02/22 01:21:26;;;;;;;7.00;2.15;;;8.10;99.90;;;;;;5073975;28;20052;-61
2024/02/22 01:23:52;;;;;;;5.07;2.05;;;8.10;99.90;;;;;;5069504;28;20029;-61
2024/02/22 01:26:17;;;;;;;4.78;2.95;;;8.10;99.90;;;;;;5077050;28;20024;-61
2024/02/22 01:28:43;;;;;;;2.88;2.10;;;8.10;99.90;;;;;;5079089;28;20028;-62
2024/02/22 01:31:09;;;;;;;3.33;2.17;;;8.10;99.90;;;;;;5078873;28;20016;-62
2024/02/22 01:33:35;;;;;;;5.10;2.28;;;8.10;99.90;;;;;;5078253;28;20044;-62
2024/02/22 01:36:01;;;;;;;8.55;2.13;;;8.10;99.90;;;;;;5080189;28;20024;-62
2024/02/22 01:38:27;;;;;;;7.10;2.15;;;8.00;99.90;;;;;;5077173;28;20492;-62
2024/02/22 01:40:53;;;;;;;7.20;2.65;;;8.00;99.90;;;;;;5071597;28;20108;-61
2024/02/22 01:43:18;;;;;;;4.15;2.22;;;8.00;99.90;;;;;;5066507;28;20079;-61
2024/02/22 01:45:44;;;;;;;7.63;2.15;;;8.00;99.90;;;;;;5074579;28;20063;-61
2024/02/22 01:48:10;;;;;;;3.25;2.20;;;8.00;99.90;;;;;;5067867;28;20336;-61
2024/02/22 01:50:37;;;;;;;8.45;2.10;;;8.00;99.90;;;;;;5069633;28;20035;-60
2024/02/22 01:53:04;;;;;;;3.63;2.60;;;8.00;99.90;;;;;;5067695;28;20213;-61
2024/02/22 01:55:30;;;;;;;4.18;2.78;;;7.90;99.90;;;;;;5069695;28;20529;-60
2024/02/22 01:57:56;;;;;;;6.78;2.42;;;7.80;99.90;;;;;;5070349;28;20055;-61
2024/02/22 02:00:23;;;;;;;9.02;2.78;;;7.70;99.90;;;;;;5067997;28;20019;-61
2024/02/22 02:02:49;;;;;;;5.40;2.83;;;7.70;99.90;;;;;;5070131;28;20020;-60
2024/02/22 02:05:16;;;;;;;5.30;2.60;;;7.60;99.90;;;;;;5068653;28;20055;-60
2024/02/22 02:07:42;;;;;;;4.25;2.63;;;7.60;99.90;;;;;;5073926;28;20025;-61
2024/02/22 02:10:11;;;;;;;7.78;2.90;;;7.60;99.90;;;;;;5069782;28;20017;-61
2024/02/22 02:12:37;;;;;;;4.03;2.85;;;7.50;99.90;;;;;;5069545;28;20017;-61
2024/02/22 02:15:04;;;;;;;7.90;3.25;;;7.50;99.90;;;;;;5067851;28;20020;-61
2024/02/22 02:17:29;;;;;;;12.02;3.55;;;7.50;99.90;;;;;;5066256;28;20477;-61
2024/02/22 02:19:56;;;;;;;5.53;3.00;;;7.50;99.90;;;;;;5073785;28;20038;-61
2024/02/22 02:22:28;;;;;;;7.93;3.78;;;7.40;99.90;;;;;;5075539;28;20233;-61
2024/02/22 02:25:03;;;;;;;4.82;3.45;;;7.40;99.90;;;;;;5071835;28;20012;-61
2024/02/22 02:27:30;;;;;;;6.28;3.50;;;7.40;99.90;;;;;;5071919;28;20104;-61
2024/02/22 02:29:56;;;;;;;10.52;3.60;;;7.40;99.90;;;;;;5055297;28;20021;-61
2024/02/22 02:32:21;;;;;;;7.60;4.13;;;7.40;99.90;;;;;;5073153;28;20025;-61
2024/02/22 02:34:47;;;;;;;8.43;3.55;;;7.40;99.90;;;;;;5074958;28;20020;-61
2024/02/22 02:37:13;;;;;;;6.88;3.15;;;7.40;99.90;;;;;;5072524;28;20437;-61
2024/02/22 02:39:38;;;;;;;10.00;3.72;;;7.40;99.90;;;;;;5072846;28;20040;-61
2024/02/22 02:42:05;;;;;;;4.53;3.53;;;7.40;99.90;;;;;;5072504;28;20024;-61
2024/02/22 02:44:31;;;;;;;5.80;3.20;;;7.30;99.90;;;;;;5073169;28;20362;-61
2024/02/22 02:46:56;;;;;;;4.57;3.40;;;7.30;99.90;;;;;;5066189;28;20025;-61
2024/02/22 02:49:22;;;;;;;8.30;3.65;;;7.40;99.90;;;;;;5074725;28;20028;-61
2024/02/22 02:51:48;;;;;;;7.95;4.13;;;7.40;99.90;;;;;;5073974;28;20042;-61
2024/02/22 02:54:14;;;;;;;8.60;3.65;;;7.40;99.90;;;;;;5071175;28;20039;-61
2024/02/22 02:56:40;;;;;;;6.60;3.45;;;7.30;99.90;;;;;;5072124;28;20414;-62
2024/02/22 02:59:05;;;;;;;10.63;3.65;;;7.40;99.90;;;;;;5074551;28;20020;-61
2024/02/22 03:01:31;;;;;;;5.53;3.33;;;7.40;99.90;;;;;;5063892;28;20021;-61
2024/02/22 03:03:57;;;;;;;6.47;3.88;;;7.40;99.90;;;;;;5074347;28;20016;-61
2024/02/22 03:06:23;;;;;;;8.32;3.67;;;7.40;99.90;;;;;;5070460;28;20121;-62
2024/02/22 03:08:48;;;;;;;5.93;3.83;;;7.40;99.90;;;;;;5073576;28;20103;-62
2024/02/22 03:11:14;;;;;;;6.72;3.80;;;7.40;99.90;;;;;;5070607;28;20048;-62
2024/02/22 03:13:39;;;;;;;8.98;3.83;;;7.40;99.90;;;;;;5070462;28;20418;-63
2024/02/22 03:16:05;;;;;;;6.53;3.83;;;7.40;99.90;;;;;;5071730;28;20035;-63
2024/02/22 03:18:34;;;;;;;7.65;3.60;;;7.40;99.90;;;;;;5071177;28;20387;-62
2024/02/22 03:21:02;;;;;;;8.05;4.47;;;7.40;99.90;;;;;;5070771;28;20032;-62
2024/02/22 03:23:28;;;;;;;7.68;4.90;;;7.40;99.90;;;;;;5070598;28;20082;-63
2024/02/22 03:25:55;;;;;;;7.53;4.13;;;7.40;99.90;;;;;;5071531;28;20508;-63
2024/02/22 03:28:21;;;;;;;6.15;3.70;;;7.40;99.90;;;;;;5071848;28;20013;-63
2024/02/22 03:30:47;;;;;;;7.85;4.05;;;7.40;99.90;;;;;;5070296;28;20024;-63
2024/02/22 03:33:13;;;;;;;7.72;3.83;;;7.40;99.90;;;;;;5070154;28;20021;-63
2024/02/22 03:35:39;;;;;;;5.70;3.67;;;7.40;99.90;;;;;;5069307;28;20389;-63
2024/02/22 03:38:04;;;;;;;7.55;3.95;;;7.40;99.90;;;;;;5064632;28;20025;-63
2024/02/22 03:40:30;;;;;;;6.57;3.55;;;7.40;99.90;;;;;;5069833;28;20032;-63
2024/02/22 03:42:57;;;;;;;10.85;4.07;;;7.50;99.90;;;;;;5070169;28;20020;-63
2024/02/22 03:45:23;;;;;;;6.07;4.18;;;7.40;99.90;;;;;;5071092;28;20009;-63
2024/02/22 03:47:50;;;;;;;5.47;3.40;;;7.40;99.90;;;;;;5072403;28;20043;-63
2024/02/22 03:50:15;;;;;;;6.47;3.33;;;7.40;99.90;;;;;;5069445;28;20031;-63
2024/02/22 03:52:41;;;;;;;7.93;3.85;;;7.50;99.90;;;;;;5073174;28;20025;-63
2024/02/22 03:55:08;;;;;;;5.47;3.53;;;7.40;99.90;;;;;;5069635;28;20020;-63
2024/02/22 03:57:34;;;;;;;7.90;3.88;;;7.40;99.90;;;;;;5071017;28;20458;-63
2024/02/22 03:59:59;;;;;;;6.80;4.15;;;7.40;99.90;;;;;;5069861;28;20036;-63
2024/02/22 04:02:25;;;;;;;8.60;3.45;;;7.50;99.90;;;;;;5071616;28;20554;-63
2024/02/22 04:04:53;;;;;;;4.72;3.17;;;7.40;99.90;;;;;;5070036;28;20024;-63
2024/02/22 04:07:19;;;;;;;5.95;3.80;;;7.40;99.90;;;;;;5070720;28;20016;-63
2024/02/22 04:09:44;;;;;;;7.22;3.88;;;7.50;99.90;;;;;;5071524;28;20534;-63
2024/02/22 04:12:10;;;;;;;5.90;3.22;;;7.50;99.90;;;;;;5069400;28;20048;-63
2024/02/22 04:14:35;;;;;;;7.78;3.53;;;7.50;99.90;;;;;;5069420;28;20035;-63
2024/02/22 04:17:01;;;;;;;4.53;3.00;;;7.50;99.90;;;;;;5070993;28;20086;-63
2024/02/22 04:19:26;;;;;;;5.95;3.25;;;7.40;99.90;;;;;;5070110;28;20085;-63
2024/02/22 04:21:52;;;;;;;6.40;3.63;;;7.50;99.90;;;;;;5070845;28;20032;-63
2024/02/22 04:24:17;;;;;;;5.82;4.07;;;7.50;99.90;;;;;;5069346;28;20013;-63
2024/02/22 04:26:50;;;;;;;6.72;3.63;;;7.50;99.90;;;;;;5069274;28;20025;-63
2024/02/22 04:29:16;;;;;;;4.55;3.08;;;7.40;99.90;;;;;;5067810;28;20029;-63
2024/02/22 04:31:43;;;;;;;5.05;2.88;;;7.50;99.90;;;;;;5070291;28;20027;-63
2024/02/22 04:34:08;;;;;;;8.88;3.70;;;7.50;99.90;;;;;;5069704;28;20366;-63
2024/02/22 04:36:39;;;;;;;3.28;2.55;;;7.50;99.90;;;;;;5070186;28;20028;-63
2024/02/22 04:39:06;;;;;;;5.55;3.13;;;7.50;99.90;;;;;;5061416;28;20021;-63
2024/02/22 04:41:32;;;;;;;5.05;2.80;;;7.50;99.90;;;;;;5069814;28;20032;-63
2024/02/22 04:43:57;;;;;;;7.22;2.75;;;7.50;99.90;;;;;;5069479;28;20220;-63
2024/02/22 04:46:23;;;;;;;2.83;2.22;;;7.50;99.90;;;;;;5069622;28;20378;-63
2024/02/22 04:48:49;;;;;;;3.95;3.00;;;7.60;99.90;;;;;;5069166;28;20063;-63
2024/02/22 04:51:15;;;;;;;5.13;2.60;;;7.50;99.90;;;;;;5069744;28;20032;-63
2024/02/22 04:53:40;;;;;;;4.57;2.58;;;7.50;99.90;;;;;;5069320;28;20158;-63
2024/02/22 04:56:06;;;;;;;3.95;2.13;;;7.50;99.90;;;;;;5069114;28;20478;-63
2024/02/22 04:58:32;;;;;;;5.32;2.67;;;7.50;99.90;;;;;;5069816;28;20020;-63
2024/02/22 05:00:57;;;;;;;5.10;2.72;;;7.60;99.90;;;;;;5068482;28;20032;-63
2024/02/22 05:03:23;;;;;;;3.90;2.50;;;7.60;99.90;;;;;;5069442;28;20016;-63
2024/02/22 05:05:49;;;;;;;6.60;2.67;;;7.60;99.90;;;;;;5068341;28;20518;-63
2024/02/22 05:08:15;;;;;;;4.20;1.90;;;7.60;99.90;;;;;;5068794;28;20252;-63
2024/02/22 05:10:40;;;;;;;4.25;2.38;;;7.60;99.90;;;;;;5067793;28;20043;-63
2024/02/22 05:13:05;;;;;;;5.75;2.20;;;7.60;99.90;;;;;;5068894;28;20020;-63
2024/02/22 05:15:31;;;;;;;4.35;2.33;;;7.60;99.90;;;;;;5068700;28;20474;-63
2024/02/22 05:17:57;;;;;;;4.80;2.28;;;7.60;99.90;;;;;;5068161;28;20440;-63
2024/02/22 05:20:22;;;;;;;2.10;1.80;;;7.60;99.90;;;;;;5068750;28;20047;-63
2024/02/22 05:22:48;;;;;;;2.63;2.03;;;7.60;99.90;;;;;;5068367;28;20033;-63
2024/02/22 05:25:13;;;;;;;4.95;2.30;;;7.60;99.90;;;;;;5068145;28;20469;-63
2024/02/22 05:27:39;;;;;;;3.25;2.40;;;7.60;99.90;;;;;;5067939;28;20273;-63
2024/02/22 05:30:05;;;;;;;2.22;2.00;;;7.60;99.90;;;;;;5076191;28;20383;-61
2024/02/22 05:32:31;;;;;;;4.40;1.75;;;7.70;99.90;;;;;;5066813;28;20086;-61
2024/02/22 05:34:56;;;;;;;5.60;2.20;;;7.60;99.90;;;;;;5067543;28;20032;-61
2024/02/22 05:37:22;;;;;;;6.13;2.25;;;7.60;99.90;;;;;;5068010;28;20025;-61
2024/02/22 05:39:47;;;;;;;2.08;1.58;;;7.70;99.90;;;;;;5066113;28;20394;-61
2024/02/22 05:42:13;;;;;;;4.72;1.95;;;7.60;99.90;;;;;;5076678;28;20064;-61
2024/02/22 05:44:39;;;;;;;2.88;1.88;;;7.60;99.90;;;;;;5074204;28;20277;-61
2024/02/22 05:47:05;;;;;;;3.45;1.90;;;7.60;99.90;;;;;;5068856;28;20113;-61
2024/02/22 05:49:31;;;;;;;2.28;1.60;;;7.70;99.90;;;;;;5067514;28;20019;-61
2024/02/22 05:51:56;;;;;;;2.70;1.60;;;7.70;99.90;;;;;;5071065;28;20024;-61
2024/02/22 05:54:23;;;;;;;3.00;1.80;;;7.70;99.90;;;;;;5078586;28;20373;-61
2024/02/22 05:56:50;;;;;;;2.75;1.70;;;7.70;99.90;;;;;;5077285;28;20130;-61
2024/02/22 05:59:15;;;;;;;4.57;1.67;;;7.70;99.90;;;;;;5079231;28;20098;-61
2024/02/22 06:01:41;;;;;;;2.33;1.77;;;7.70;99.90;;;;;;5075166;28;20154;-61
2024/02/22 06:04:07;;;;;;;2.20;1.60;;;7.70;99.90;;;;;;5079172;28;20028;-61
2024/02/22 06:06:33;;;;;;;2.03;1.63;;;7.70;99.90;;;;;;5078687;28;20020;-61
2024/02/22 06:08:58;;;;;;;3.22;1.65;;;7.70;99.90;;;;;;5070408;28;20428;-62
2024/02/22 06:11:24;;;;;;;2.72;1.90;;;7.70;99.90;;;;;;5085736;28;20063;-62
2024/02/22 06:13:49;;;;;;;3.22;1.90;;;7.70;99.90;;;;;;5078272;28;20025;-63
2024/02/22 06:16:15;;;;;;;4.85;2.05;;;7.70;99.90;;;;;;5086557;28;20059;-63
2024/02/22 06:18:41;;;;;;;3.35;1.80;;;7.80;99.90;;;;;;5078728;28;20262;-63
2024/02/22 06:21:07;;;;;;;3.65;1.52;;;7.70;99.90;;;;;;5075053;28;20021;-62
2024/02/22 06:23:34;;;;;;;2.88;1.77;;;7.80;99.90;;;;;;5074876;28;20036;-62
2024/02/22 06:25:59;;;;;;;2.50;1.77;;;7.80;99.90;;;;;;5077573;28;20054;-62
2024/02/22 06:28:25;;;;;;;3.63;1.65;;;7.80;99.90;;;;;;5081525;28;20502;-62
2024/02/22 06:30:50;;;;;;;4.50;1.67;;;7.80;99.90;;;;;;5068391;28;20408;-63
2024/02/22 06:33:16;;;;;;;3.30;2.25;;;7.80;99.90;;;;;;5074530;28;20438;-62
2024/02/22 06:35:42;;;;;;;2.08;1.67;;;7.80;99.90;;;;;;5075334;28;20111;-62
2024/02/22 06:38:07;;;;;;;2.35;1.50;;;7.80;99.90;;;;;;5074777;28;20024;-62
2024/02/22 06:40:33;;;;;;;3.28;2.00;;;7.90;99.90;;;;;;5068390;28;20052;-62
2024/02/22 06:42:58;;;;;;;3.28;2.08;;;7.90;99.90;;;;;;5065320;28;20074;-62
2024/02/22 06:45:24;;;;;;;4.05;1.90;;;7.80;99.90;;;;;;5067174;28;20044;-62
2024/02/22 06:47:50;;;;;;;3.17;1.95;;;7.90;99.90;;;;;;5066651;28;20017;-62
2024/02/22 06:50:16;;;;;;;4.57;1.80;;;7.90;99.90;;;;;;5066193;28;20111;-62
2024/02/22 06:52:42;;;;;;;2.90;1.92;;;7.90;99.90;;;;;;5067342;28;20629;-62
2024/02/22 06:55:08;;;;;;;5.03;2.17;;;7.90;99.90;;;;;;5066174;28;20024;-62
2024/02/22 06:57:34;;;;;;;5.00;3.33;;;7.90;99.90;;;;;;5073784;28;20423;-62
2024/02/22 07:00:01;;;;;;;6.25;2.50;;;7.90;99.90;;;;;;5076842;28;20024;-62
2024/02/22 07:02:26;;;;;;;2.92;2.20;;;7.90;99.90;;;;;;5079764;28;20012;-62
2024/02/22 07:04:52;;;;;;;6.00;2.58;;;7.90;99.90;;;;;;5076761;28;20020;-62
2024/02/22 07:07:17;;;;;;;4.78;2.10;;;7.90;99.90;;;;;;5083540;28;20024;-62
2024/02/22 07:09:43;;;;;;;4.72;2.13;;;7.90;99.90;;;;;;5082626;28;20036;-62
2024/02/22 07:12:09;;;;;;;7.68;2.20;;;7.90;99.90;;;;;;5078690;28;20028;-61
2024/02/22 07:14:35;;;;;;;3.72;2.10;;;8.00;99.90;;;;;;5080975;28;20031;-60
2024/02/22 07:17:00;;;;;;;5.38;2.58;;;8.00;99.90;;;;;;5079396;28;20281;-59
2024/02/22 07:19:27;;;;;;;4.93;2.47;;;8.00;99.90;;;;;;5084166;28;20028;-59
2024/02/22 07:21:52;;;;;;;5.95;2.63;;;8.00;99.90;;;;;;5081775;28;20025;-59
2024/02/22 07:24:18;;;;;;;6.22;2.40;;;8.00;99.90;;;;;;5082632;28;20024;-59
2024/02/22 07:26:43;;;;;;;16.92;4.13;;;8.00;99.90;;;;;;5082095;28;20070;-60
2024/02/22 07:29:09;;;;;;;8.30;2.90;;;8.10;99.90;;;;;;5080106;28;20020;-60
2024/02/22 07:31:35;;;;;;;6.35;2.50;;;8.10;99.90;;;;;;5075251;28;20052;-60
2024/02/22 07:34:00;;;;;;;9.35;3.25;;;8.10;99.90;;;;;;5080450;28;20028;-60
2024/02/22 07:36:27;;;;;;;20.77;3.90;;;8.10;99.90;;;;;;5082347;28;20016;-60
2024/02/22 07:38:52;;;;;;;8.18;2.80;;;8.20;99.90;;;;;;5081697;28;20047;-60
2024/02/22 07:41:18;;;;;;;6.32;2.05;;;8.20;99.90;;;;;;5079130;28;20028;-60
2024/02/22 07:43:45;;;;;;;8.60;2.78;;;8.20;99.90;;;;;;5068988;28;20371;-60
2024/02/22 07:46:12;;;;;;;11.05;2.92;;;8.20;99.90;;;;;;5086318;28;20013;-61
2024/02/22 07:48:41;;;;;;;4.50;2.80;;;8.30;99.90;;;;;;5085044;28;20316;-61
2024/02/22 07:51:07;;;;;;;10.80;3.00;;;8.30;99.90;;;;;;5081079;28;20454;-60
2024/02/22 07:53:37;;;;;;;7.85;2.88;;;8.20;99.90;;;;;;5089730;28;20034;-59
2024/02/22 07:56:06;;;;;;;7.45;2.60;;;8.30;99.90;;;;;;5078657;28;20028;-60
2024/02/22 07:58:52;;;;;;;16.67;4.05;;;8.30;99.90;;;;;;5075755;28;20045;-60
2024/02/22 08:01:17;;;;;;;4.40;2.60;;;8.30;99.90;;;;;;5072977;28;20082;-60
2024/02/22 08:03:44;;;;;;;8.18;3.28;;;8.30;99.90;;;;;;5088338;28;20289;-60
2024/02/22 08:06:10;;;;;;;5.97;3.10;;;8.30;99.90;;;;;;5085015;28;20059;-60
2024/02/22 08:08:36;;;;;;;4.25;2.67;;;8.30;99.90;;;;;;5081732;28;20028;-60
2024/02/22 08:11:02;;;;;;;9.15;3.80;;;8.40;99.90;;;;;;5078297;28;20051;-60
2024/02/22 08:13:28;;;;;;;6.30;2.90;;;8.40;99.90;;;;;;5073388;28;20481;-60
2024/02/22 08:16:05;;;;;;;6.35;2.80;;;8.40;99.90;;;;;;5082920;28;20070;-60
2024/02/22 08:18:31;;;;;;;7.88;3.83;;;8.40;99.90;;;;;;5075999;28;20032;-60
2024/02/22 08:20:57;;;;;;;10.05;3.40;;;8.40;99.90;;;;;;5068835;28;20025;-59
2024/02/22 14:55:46;;;;;;;0.40;0.40;;;12.20;99.90;;;;;;5029304;28;20575;-81
2024/02/22 14:58:12;;;;;;;0.50;0.43;;;12.20;99.90;;;;;;5041722;28;20044;-82
2024/02/22 15:11:13;;;;;;;2.33;0.70;;;12.00;99.90;;;;;;4988967;28;20041;-83
2024/02/22 15:13:42;;;;;;;1.23;0.77;;;12.00;99.90;;;;;;4973314;28;20470;-83
2024/02/22 15:16:08;;;;;;;1.33;0.85;;;12.00;99.90;;;;;;5016754;28;20297;-82
2024/02/22 15:18:33;;;;;;;0.65;0.60;;;12.00;99.90;;;;;;5030929;28;20025;-82
2024/02/22 15:20:59;;;;;;;0.60;0.50;;;12.00;99.90;;;;;;5030583;28;20063;-82
2024/02/22 15:23:24;;;;;;;0.52;0.40;;;12.00;99.90;;;;;;5027534;28;20076;-81
2024/02/22 15:25:50;;;;;;;1.52;0.60;;;12.00;99.90;;;;;;5035872;28;20075;-82
2024/02/22 15:28:16;;;;;;;0.98;0.70;;;12.00;99.90;;;;;;5048402;28;20482;-83
2024/02/22 15:30:42;;;;;;;0.40;0.40;;;12.00;99.90;;;;;;5049622;28;20260;-82
2024/02/22 15:33:07;;;;;;;0.70;0.70;;;12.00;99.90;;;;;;5035382;28;20095;-83
2024/02/22 15:35:33;;;;;;;1.13;0.68;;;12.00;99.90;;;;;;5048206;28;20025;-83
2024/02/22 15:38:00;;;;;;;0.60;0.60;;;12.00;99.90;;;;;;5049673;28;20025;-82
2024/02/22 15:40:26;;;;;;;0.50;0.50;;;12.10;99.90;;;;;;5046866;28;20538;-82
2024/02/22 15:42:51;;;;;;;0.50;0.50;;;12.10;99.90;;;;;;5051241;28;20028;-82
2024/02/22 15:45:17;;;;;;;0.65;0.60;;;12.00;99.90;;;;;;5039537;28;20359;-82
2024/02/22 15:47:43;;;;;;;0.60;0.60;;;12.00;99.90;;;;;;5049460;28;20021;-82
2024/02/22 15:50:09;;;;;;;0.70;0.70;;;12.00;99.90;;;;;;5049410;28;20448;-83
2024/02/22 15:52:44;;;;;;;0.98;0.70;;;12.00;99.90;;;;;;5040092;28;20050;-84
2024/02/22 15:55:09;;;;;;;1.15;0.85;;;12.00;99.90;;;;;;5044063;28;20375;-82
2024/02/22 15:57:36;;;;;;;0.80;0.50;;;12.00;99.90;;;;;;5040869;28;20028;-82
2024/02/22 16:00:02;;;;;;;1.50;0.70;;;12.00;99.90;;;;;;5041496;28;20104;-82
2024/02/22 16:02:28;;;;;;;0.55;0.52;;;11.90;99.90;;;;;;5049196;28;20017;-82
2024/02/22 16:04:53;;;;;;;1.25;0.85;;;12.00;99.90;;;;;;5048892;28;20103;-82
2024/02/22 16:07:19;;;;;;;0.65;0.50;;;11.90;99.90;;;;;;5039912;28;20025;-83
2024/02/22 16:09:44;;;;;;;1.17;0.60;;;11.90;99.90;;;;;;5050724;28;20028;-83
2024/02/22 16:12:11;;;;;;;0.40;0.40;;;11.90;99.90;;;;;;5046117;28;20017;-82
2024/02/22 16:14:39;;;;;;;1.52;0.70;;;11.80;99.90;;;;;;5046483;28;20025;-82
2024/02/22 16:17:04;;;;;;;0.82;0.47;;;11.80;99.90;;;;;;5024266;28;20635;-82
2024/02/22 16:19:30;;;;;;;1.17;0.60;;;11.80;99.90;;;;;;5037130;28;20108;-84
2024/02/22 16:21:58;;;;;;;0.50;0.43;;;11.80;99.90;;;;;;5032597;28;20125;-81
2024/02/22 16:24:23;;;;;;;0.75;0.50;;;11.80;99.90;;;;;;5041574;28;20466;-81
2024/02/22 16:26:49;;;;;;;1.17;0.90;;;11.80;99.90;;;;;;5044561;28;20115;-82
2024/02/22 16:29:15;;;;;;;0.98;0.65;;;11.70;99.90;;;;;;5040059;28;20068;-82
2024/02/22 16:31:41;;;;;;;5.15;0.70;;;11.70;99.90;;;;;;5044865;28;20052;-82
2024/02/22 16:34:07;;;;;;;0.75;0.60;;;11.70;99.90;;;;;;5043553;28;20028;-82
2024/02/22 16:36:33;;;;;;;2.95;0.85;;;11.70;99.90;;;;;;5046183;28;20071;-82
2024/02/22 16:38:58;;;;;;;1.98;0.60;;;11.70;99.90;;;;;;5048804;28;20114;-82
2024/02/22 16:41:25;;;;;;;0.70;0.70;;;11.60;99.90;;;;;;5040234;28;20044;-82
2024/02/22 16:43:50;;;;;;;0.68;0.60;;;11.60;99.90;;;;;;5042882;28;21279;-82
2024/02/22 16:46:16;;;;;;;2.92;0.75;;;11.60;99.90;;;;;;5034908;28;20025;-83
2024/02/22 16:48:41;;;;;;;0.80;0.73;;;11.60;99.90;;;;;;5046642;28;20021;-82
2024/02/22 16:51:07;;;;;;;3.47;0.65;;;11.60;99.90;;;;;;5047849;28;20023;-83
2024/02/22 16:53:33;;;;;;;1.00;0.90;;;11.50;99.90;;;;;;5043009;28;20056;-82
2024/02/22 16:56:00;;;;;;;1.42;0.50;;;11.50;99.90;;;;;;5039562;28;20014;-83
2024/02/22 16:58:25;;;;;;;2.75;0.70;;;11.50;99.90;;;;;;5043953;28;20394;-82
2024/02/22 17:00:51;;;;;;;0.70;0.70;;;11.50;99.90;;;;;;5031610;28;20021;-82
2024/02/22 17:03:18;;;;;;;0.70;0.70;;;11.50;99.90;;;;;;5038738;28;20116;-83
2024/02/22 17:05:44;;;;;;;1.40;0.60;;;11.50;99.90;;;;;;5042491;28;20064;-82
2024/02/22 17:08:10;;;;;;;2.45;0.70;;;11.50;99.90;;;;;;5047691;28;20048;-82
2024/02/22 17:10:36;;;;;;;1.92;0.50;;;11.50;99.90;;;;;;5037824;28;20017;-83
2024/02/22 17:13:02;;;;;;;1.35;0.80;;;11.50;99.90;;;;;;5040611;28;20025;-83
2024/02/22 17:15:27;;;;;;;1.15;0.70;;;11.50;99.90;;;;;;5047894;28;20395;-82
2024/02/22 17:17:53;;;;;;;0.50;0.50;;;11.50;99.90;;;;;;5038319;28;20034;-81
2024/02/22 17:20:19;;;;;;;0.98;0.70;;;11.50;99.90;;;;;;5029836;28;20211;-81
2024/02/22 17:22:45;;;;;;;0.50;0.50;;;11.50;99.90;;;;;;5027924;28;20389;-81
2024/02/22 17:25:12;;;;;;;0.50;0.50;;;11.50;99.90;;;;;;5027300;28;20119;-82
2024/02/22 17:27:38;;;;;;;0.60;0.60;;;11.50;99.90;;;;;;5030529;28;20013;-81
2024/02/22 17:30:05;;;;;;;0.93;0.60;;;11.50;99.90;;;;;;5030530;28;20113;-82
2024/02/22 17:32:31;;;;;;;1.15;1.05;;;11.50;99.90;;;;;;5026364;28;20116;-82
2024/02/22 17:34:57;;;;;;;1.77;0.40;;;11.50;99.90;;;;;;5044357;28;20108;-82
2024/02/22 17:37:22;;;;;;;1.55;0.75;;;11.50;99.90;;;;;;5042199;28;20040;-82
2024/02/22 17:39:50;;;;;;;2.80;0.60;;;11.50;99.90;;;;;;5029784;28;20498;-82
2024/02/22 17:42:16;;;;;;;2.22;0.75;;;11.60;99.90;;;;;;5046932;28;20021;-82
2024/02/22 17:44:41;;;;;;;0.90;0.65;;;11.50;99.90;;;;;;5039737;28;20036;-81
2024/02/22 17:47:07;;;;;;;8.40;1.20;;;11.60;99.90;;;;;;5046432;28;20024;-81
2024/02/22 17:49:32;;;;;;;0.80;0.60;;;11.60;99.90;;;;;;5046459;28;20033;-81
2024/02/22 17:52:00;;;;;;;0.75;0.60;;;11.60;99.90;;;;;;5037600;28;20031;-82
2024/02/22 17:54:26;;;;;;;0.85;0.70;;;11.60;99.90;;;;;;5046657;28;20025;-82
2024/02/22 17:56:51;;;;;;;1.65;0.70;;;11.50;99.90;;;;;;5033141;28;20033;-81
2024/02/22 17:59:17;;;;;;;3.05;1.00;;;11.50;99.90;;;;;;5046575;28;20563;-82
2024/02/22 18:01:43;;;;;;;0.68;0.60;;;11.50;99.90;;;;;;5045579;28;20071;-82
2024/02/22 18:04:08;;;;;;;0.90;0.60;;;11.50;99.90;;;;;;5028552;28;20389;-82
2024/02/22 18:06:34;;;;;;;1.85;0.73;;;11.50;99.90;;;;;;5026843;28;20598;-82
2024/02/22 18:09:00;;;;;;;0.85;0.68;;;11.50;99.90;;;;;;5038846;28;20021;-82
2024/02/22 18:11:25;;;;;;;0.50;0.50;;;11.50;99.90;;;;;;5038248;28;20028;-82
2024/02/22 18:13:51;;;;;;;0.73;0.65;;;11.50;99.90;;;;;;5038623;28;20489;-82
2024/02/22 18:16:16;;;;;;;1.73;0.90;;;11.50;99.90;;;;;;5032014;28;20079;-83
2024/02/22 18:18:44;;;;;;;0.45;0.45;;;11.50;99.90;;;;;;5043719;28;20384;-83
2024/02/22 18:21:13;;;;;;;0.50;0.50;;;11.50;99.90;;;;;;5039808;28;20144;-82
2024/02/22 18:23:41;;;;;;;0.68;0.50;;;11.60;99.90;;;;;;5045890;28;20024;-85
2024/02/22 18:26:17;;;;;;;0.60;0.60;;;11.60;99.90;;;;;;5022875;28;20478;-83
2024/02/22 18:28:43;;;;;;;0.32;0.32;;;11.60;99.90;;;;;;5046914;28;20029;-82
2024/02/22 18:31:09;;;;;;;0.50;0.50;;;11.60;99.90;;;;;;5045805;28;20070;-82
2024/02/22 18:33:35;;;;;;;1.00;0.70;;;11.60;99.90;;;;;;5046709;28;20028;-82
2024/02/22 18:36:01;;;;;;;0.93;0.60;;;11.60;99.90;;;;;;5034403;28;20408;-82
2024/02/22 18:38:28;;;;;;;1.77;0.50;;;11.60;99.90;;;;;;5041934;28;20056;-81
2024/02/22 18:40:54;;;;;;;0.43;0.43;;;11.60;99.90;;;;;;5044442;28;20025;-82
2024/02/22 18:43:19;;;;;;;1.75;0.52;;;11.60;99.90;;;;;;5034785;28;20028;-83
2024/02/22 18:45:45;;;;;;;0.52;0.50;;;11.60;99.90;;;;;;5039868;28;20186;-82
2024/02/22 18:48:12;;;;;;;0.68;0.60;;;11.60;99.90;;;;;;5041858;28;20021;-83
2024/02/22 18:50:38;;;;;;;1.00;0.75;;;11.60;99.90;;;;;;5043019;28;20544;-83
2024/02/22 18:53:03;;;;;;;1.40;0.85;;;11.60;99.90;;;;;;5031189;28;20041;-81
2024/02/22 18:55:29;;;;;;;1.17;0.75;;;11.60;99.90;;;;;;5026511;28;20025;-82
2024/02/22 18:57:54;;;;;;;0.70;0.70;;;11.60;99.90;;;;;;5034879;28;20037;-82
2024/02/22 19:00:20;;;;;;;4.18;0.90;;;11.60;99.90;;;;;;5029049;28;20109;-82
2024/02/22 19:02:47;;;;;;;0.50;0.50;;;11.60;99.90;;;;;;5045458;28;20017;-82
2024/02/22 19:05:12;;;;;;;0.95;0.70;;;11.60;99.90;;;;;;5040694;28;20525;-83
2024/02/22 19:07:38;;;;;;;1.08;0.70;;;11.60;99.90;;;;;;5038163;28;20025;-83
2024/02/22 19:10:10;;;;;;;1.25;0.80;;;11.60;99.90;;;;;;5050124;28;20104;-83
2024/02/22 19:12:36;;;;;;;0.60;0.60;;;11.60;99.90;;;;;;5042904;28;20049;-83
2024/02/22 19:15:03;;;;;;;2.20;1.00;;;11.60;99.90;;;;;;5049254;28;20036;-83
2024/02/22 19:17:29;;;;;;;1.60;1.08;;;11.60;99.90;;;;;;5049955;28;20021;-83
2024/02/22 19:19:54;;;;;;;2.22;0.70;;;11.70;99.90;;;;;;5049768;28;20074;-83
2024/02/22 19:22:20;;;;;;;2.35;0.60;;;11.70;99.90;;;;;;5036766;28;20048;-82
2024/02/22 19:24:45;;;;;;;0.88;0.60;;;11.70;99.90;;;;;;5037853;28;20020;-83
2024/02/22 19:27:11;;;;;;;1.25;0.90;;;11.70;99.90;;;;;;5040281;28;20013;-82
2024/02/22 19:29:42;;;;;;;0.82;0.60;;;11.60;99.90;;;;;;5048083;28;20026;-85